createdAt,value
2018-04-13T00:00:14.558Z,0
2018-04-13T00:01:23.389Z,0
2018-04-13T00:02:32.330Z,0
2018-04-13T00:03:41.165Z,0
2018-04-13T00:04:50.279Z,0
2018-04-13T00:05:59.389Z,0
2018-04-13T00:07:08.221Z,0
2018-04-13T00:08:17.058Z,0
2018-04-13T00:09:25.893Z,0
2018-04-13T00:10:34.730Z,0
2018-04-13T00:11:43.565Z,0
2018-04-13T00:12:52.397Z,0
2018-04-13T00:14:01.433Z,0
2018-04-13T00:15:10.267Z,0
2018-04-13T00:16:19.377Z,0
2018-04-13T00:17:28.212Z,0
2018-04-13T00:18:37.047Z,0
2018-04-13T00:19:45.980Z,0
2018-04-13T00:20:54.817Z,0
2018-04-13T00:22:04.196Z,0
2018-04-13T00:23:13.030Z,0
2018-04-13T00:24:21.862Z,0
2018-04-13T00:25:30.698Z,0
2018-04-13T00:26:39.533Z,0
2018-04-13T00:27:48.371Z,0
2018-04-13T00:28:57.206Z,0
2018-04-13T00:30:06.316Z,0
2018-04-13T00:31:15.150Z,0
2018-04-13T00:32:23.984Z,0
2018-04-13T00:33:33.100Z,0
2018-04-13T00:34:41.934Z,0
2018-04-13T00:35:50.769Z,0
2018-04-13T00:37:00.205Z,0
2018-04-13T00:38:09.311Z,0
2018-04-13T00:39:18.148Z,0
2018-04-13T00:40:27.263Z,0
2018-04-13T00:41:36.096Z,0
2018-04-13T00:42:45.211Z,0
2018-04-13T00:43:54.042Z,0
2018-04-13T00:45:02.881Z,0
2018-04-13T00:46:11.990Z,0
2018-04-13T00:47:20.824Z,0
2018-04-13T00:48:29.710Z,0
2018-04-13T00:49:38.544Z,0
2018-04-13T00:50:47.379Z,0
2018-04-13T00:51:56.485Z,0
2018-04-13T00:53:05.321Z,0
2018-04-13T00:54:14.204Z,0
2018-04-13T00:55:23.886Z,0
2018-04-13T00:56:32.714Z,0
2018-04-13T00:57:41.549Z,0
2018-04-13T00:58:50.385Z,0
2018-04-13T00:59:59.369Z,0
2018-04-13T01:01:08.478Z,0
2018-04-13T01:02:17.314Z,0
2018-04-13T01:03:26.150Z,0
2018-04-13T01:04:34.983Z,0
2018-04-13T01:05:44.221Z,0
2018-04-13T01:06:53.051Z,0
2018-04-13T01:08:01.883Z,0
2018-04-13T01:09:10.722Z,0
2018-04-13T01:10:19.554Z,0
2018-04-13T01:11:28.697Z,0
2018-04-13T01:12:37.524Z,0
2018-04-13T01:13:46.635Z,0
2018-04-13T01:14:55.467Z,0
2018-04-13T01:16:04.310Z,0
2018-04-13T01:17:13.143Z,0
2018-04-13T01:18:21.981Z,0
2018-04-13T01:19:30.812Z,0
2018-04-13T01:20:39.646Z,0
2018-04-13T01:21:48.481Z,0
2018-04-13T01:22:57.313Z,0
2018-04-13T01:24:06.147Z,0
2018-04-13T01:25:14.980Z,0
2018-04-13T01:26:23.815Z,0
2018-04-13T01:27:32.649Z,0
2018-04-13T01:28:42.059Z,0
2018-04-13T01:29:51.173Z,0
2018-04-13T01:31:00.008Z,0
2018-04-13T01:32:09.128Z,0
2018-04-13T01:33:17.961Z,0
2018-04-13T01:34:26.996Z,0
2018-04-13T01:35:36.106Z,0
2018-04-13T01:36:44.942Z,0
2018-04-13T01:37:53.775Z,0
2018-04-13T01:39:02.613Z,0
2018-04-13T01:40:12.054Z,0
2018-04-13T01:41:20.888Z,0
2018-04-13T01:42:29.723Z,0
2018-04-13T01:43:38.563Z,0
2018-04-13T01:44:47.393Z,0
2018-04-13T01:45:56.276Z,0
2018-04-13T01:47:05.446Z,0
2018-04-13T01:48:14.556Z,0
2018-04-13T01:49:23.390Z,0
2018-04-13T01:50:32.499Z,0
2018-04-13T01:51:41.608Z,0
2018-04-13T01:52:50.447Z,0
2018-04-13T01:53:59.846Z,0
2018-04-13T01:55:08.682Z,0
2018-04-13T01:56:17.516Z,0
2018-04-13T01:57:26.907Z,0
2018-04-13T01:58:35.740Z,0
2018-04-13T01:59:44.574Z,0
2018-04-13T02:00:53.408Z,0
2018-04-13T02:02:02.527Z,0
2018-04-13T02:03:11.710Z,0
2018-04-13T02:04:20.546Z,0
2018-04-13T02:05:29.384Z,0
2018-04-13T02:06:38.220Z,0
2018-04-13T02:07:47.055Z,0
2018-04-13T02:08:55.888Z,0
2018-04-13T02:10:04.724Z,0
2018-04-13T02:11:13.568Z,0
2018-04-13T02:12:22.408Z,0
2018-04-13T02:13:31.245Z,0
2018-04-13T02:14:40.228Z,0
2018-04-13T02:15:49.075Z,0
2018-04-13T02:16:57.899Z,0
2018-04-13T02:18:07.005Z,0
2018-04-13T02:19:16.116Z,0
2018-04-13T02:20:25.102Z,0
2018-04-13T02:21:33.937Z,0
2018-04-13T02:22:42.774Z,0
2018-04-13T02:23:51.606Z,0
2018-04-13T02:25:00.439Z,0
2018-04-13T02:26:09.573Z,0
2018-04-13T02:27:18.409Z,0
2018-04-13T02:28:27.244Z,0
2018-04-13T02:29:36.077Z,0
2018-04-13T02:30:45.191Z,0
2018-04-13T02:31:54.831Z,0
2018-04-13T02:33:03.669Z,0
2018-04-13T02:34:12.537Z,0
2018-04-13T02:35:21.906Z,0
2018-04-13T02:36:30.740Z,0
2018-04-13T02:37:40.173Z,0
2018-04-13T02:38:49.011Z,0
2018-04-13T02:39:58.121Z,0
2018-04-13T02:41:07.235Z,0
2018-04-13T02:42:16.902Z,0
2018-04-13T02:43:25.736Z,0
2018-04-13T02:44:34.845Z,0
2018-04-13T02:45:43.680Z,0
2018-04-13T02:46:52.794Z,0
2018-04-13T02:48:02.189Z,0
2018-04-13T02:49:11.072Z,0
2018-04-13T02:50:19.912Z,0
2018-04-13T02:51:28.750Z,0
2018-04-13T02:52:38.138Z,0
2018-04-13T02:53:46.974Z,0
2018-04-13T02:54:56.389Z,0
2018-04-13T02:56:05.227Z,0
2018-04-13T02:57:14.337Z,0
2018-04-13T02:58:23.730Z,0
2018-04-13T02:59:32.572Z,0
2018-04-13T03:00:41.408Z,0
2018-04-13T03:01:50.525Z,0
2018-04-13T03:02:59.359Z,0
2018-04-13T03:04:08.754Z,0
2018-04-13T03:05:17.588Z,0
2018-04-13T03:06:27.084Z,0
2018-04-13T03:07:36.256Z,0
2018-04-13T03:08:45.314Z,0
2018-04-13T03:09:54.425Z,0
2018-04-13T03:11:03.539Z,0
2018-04-13T03:12:12.671Z,0
2018-04-13T03:13:21.781Z,0
2018-04-13T03:14:30.614Z,0
2018-04-13T03:15:39.447Z,0
2018-04-13T03:16:48.279Z,0
2018-04-13T03:17:57.392Z,0
2018-04-13T03:19:06.514Z,0
2018-04-13T03:20:15.348Z,0
2018-04-13T03:21:24.181Z,0
2018-04-13T03:22:33.015Z,0
2018-04-13T03:23:41.950Z,0
2018-04-13T03:24:51.064Z,0
2018-04-13T03:25:59.898Z,0
2018-04-13T03:27:08.732Z,0
2018-04-13T03:28:17.565Z,0
2018-04-13T03:29:26.549Z,0
2018-04-13T03:30:35.397Z,0
2018-04-13T03:31:45.059Z,0
2018-04-13T03:32:54.444Z,0
2018-04-13T03:34:03.280Z,0
2018-04-13T03:35:12.113Z,0
2018-04-13T03:36:20.946Z,0
2018-04-13T03:37:30.053Z,0
2018-04-13T03:38:39.161Z,0
2018-04-13T03:39:47.999Z,0
2018-04-13T03:40:56.885Z,0
2018-04-13T03:42:05.719Z,0
2018-04-13T03:43:14.552Z,0
2018-04-13T03:44:23.387Z,0
2018-04-13T03:45:32.220Z,0
2018-04-13T03:46:41.308Z,0
2018-04-13T03:47:50.419Z,0
2018-04-13T03:48:59.527Z,0
2018-04-13T03:50:08.639Z,0
2018-04-13T03:51:17.753Z,0
2018-04-13T03:52:26.634Z,0
2018-04-13T03:53:35.741Z,0
2018-04-13T03:54:44.576Z,0
2018-04-13T03:55:53.405Z,0
2018-04-13T03:57:02.515Z,0
2018-04-13T03:58:11.772Z,0
2018-04-13T03:59:20.606Z,0
2018-04-13T04:00:29.441Z,0
2018-04-13T04:01:38.274Z,0
2018-04-13T04:02:47.116Z,0
2018-04-13T04:03:56.226Z,0
2018-04-13T04:05:05.059Z,0
2018-04-13T04:06:13.892Z,4
2018-04-13T04:07:23.005Z,4
2018-04-13T04:08:31.843Z,0
2018-04-13T04:09:41.044Z,4
2018-04-13T04:10:49.875Z,4
2018-04-13T04:11:58.981Z,4
2018-04-13T04:13:07.815Z,8
2018-04-13T04:14:16.652Z,8
2018-04-13T04:15:25.530Z,12
2018-04-13T04:16:34.365Z,12
2018-04-13T04:17:43.472Z,12
2018-04-13T04:18:52.589Z,16
2018-04-13T04:20:01.425Z,20
2018-04-13T04:21:10.684Z,20
2018-04-13T04:22:19.797Z,24
2018-04-13T04:23:28.628Z,28
2018-04-13T04:24:37.459Z,32
2018-04-13T04:25:46.574Z,32
2018-04-13T04:26:55.735Z,40
2018-04-13T04:28:04.567Z,44
2018-04-13T04:29:13.401Z,48
2018-04-13T04:30:22.234Z,52
2018-04-13T04:31:31.066Z,56
2018-04-13T04:32:40.225Z,60
2018-04-13T04:33:49.060Z,68
2018-04-13T04:34:57.909Z,76
2018-04-13T04:36:06.734Z,80
2018-04-13T04:37:15.568Z,88
2018-04-13T04:38:24.504Z,96
2018-04-13T04:39:33.339Z,108
2018-04-13T04:40:42.449Z,116
2018-04-13T04:41:51.283Z,128
2018-04-13T04:43:00.120Z,144
2018-04-13T04:44:09.251Z,156
2018-04-13T04:45:18.087Z,168
2018-04-13T04:46:26.922Z,180
2018-04-13T04:47:35.755Z,192
2018-04-13T04:48:44.588Z,208
2018-04-13T04:49:53.419Z,216
2018-04-13T04:51:02.256Z,232
2018-04-13T04:52:11.363Z,252
2018-04-13T04:53:20.198Z,260
2018-04-13T04:54:29.031Z,276
2018-04-13T04:55:38.015Z,288
2018-04-13T04:56:47.397Z,292
2018-04-13T04:57:56.228Z,304
2018-04-13T04:59:05.060Z,308
2018-04-13T05:00:13.895Z,312
2018-04-13T05:01:23.100Z,316
2018-04-13T05:02:31.936Z,320
2018-04-13T05:03:40.769Z,328
2018-04-13T05:04:49.877Z,336
2018-04-13T05:05:58.710Z,336
2018-04-13T05:07:07.817Z,332
2018-04-13T05:08:16.650Z,332
2018-04-13T05:09:25.515Z,332
2018-04-13T05:10:34.591Z,336
2018-04-13T05:11:43.702Z,340
2018-04-13T05:12:52.536Z,332
2018-04-13T05:14:01.371Z,324
2018-04-13T05:15:10.206Z,320
2018-04-13T05:16:19.040Z,316
2018-04-13T05:17:27.875Z,320
2018-04-13T05:18:36.708Z,324
2018-04-13T05:19:45.541Z,328
2018-04-13T05:20:54.376Z,340
2018-04-13T05:22:03.209Z,360
2018-04-13T05:23:12.318Z,380
2018-04-13T05:24:21.735Z,396
2018-04-13T05:25:30.572Z,400
2018-04-13T05:26:39.406Z,420
2018-04-13T05:27:48.790Z,432
2018-04-13T05:28:57.625Z,436
2018-04-13T05:30:06.661Z,444
2018-04-13T05:31:15.494Z,452
2018-04-13T05:32:24.327Z,456
2018-04-13T05:33:33.161Z,484
2018-04-13T05:34:41.998Z,520
2018-04-13T05:35:51.206Z,548
2018-04-13T05:37:00.047Z,576
2018-04-13T05:38:09.157Z,608
2018-04-13T05:39:17.992Z,656
2018-04-13T05:40:27.101Z,672
2018-04-13T05:41:35.980Z,672
2018-04-13T05:42:44.814Z,664
2018-04-13T05:43:53.647Z,676
2018-04-13T05:45:02.479Z,704
2018-04-13T05:46:11.889Z,720
2018-04-13T05:47:21.206Z,748
2018-04-13T05:48:30.040Z,720
2018-04-13T05:49:38.875Z,708
2018-04-13T05:50:47.987Z,756
2018-04-13T05:51:56.819Z,752
2018-04-13T05:53:06.031Z,748
2018-04-13T05:54:15.141Z,736
2018-04-13T05:55:23.975Z,752
2018-04-13T05:56:32.809Z,720
2018-04-13T05:57:41.644Z,676
2018-04-13T05:58:50.529Z,660
2018-04-13T05:59:59.363Z,616
2018-04-13T06:01:08.197Z,584
2018-04-13T06:02:17.034Z,560
2018-04-13T06:03:25.867Z,572
2018-04-13T06:04:34.800Z,580
2018-04-13T06:05:43.636Z,604
2018-04-13T06:06:52.468Z,636
2018-04-13T06:08:01.302Z,668
2018-04-13T06:09:10.411Z,696
2018-04-13T06:10:19.630Z,732
2018-04-13T06:11:29.033Z,784
2018-04-13T06:12:37.865Z,820
2018-04-13T06:13:46.699Z,872
2018-04-13T06:14:55.534Z,932
2018-04-13T06:16:04.621Z,972
2018-04-13T06:17:13.734Z,1036
2018-04-13T06:18:22.571Z,1128
2018-04-13T06:19:31.412Z,1224
2018-04-13T06:20:40.245Z,1300
2018-04-13T06:21:49.401Z,1348
2018-04-13T06:22:58.235Z,1352
2018-04-13T06:24:07.342Z,1316
2018-04-13T06:25:16.178Z,1304
2018-04-13T06:26:25.011Z,1368
2018-04-13T06:27:34.223Z,1496
2018-04-13T06:28:43.061Z,1636
2018-04-13T06:29:51.904Z,1776
2018-04-13T06:31:01.012Z,1928
2018-04-13T06:32:09.845Z,2060
2018-04-13T06:33:18.938Z,2152
2018-04-13T06:34:27.773Z,2208
2018-04-13T06:35:36.881Z,2216
2018-04-13T06:36:45.713Z,2264
2018-04-13T06:37:54.821Z,2428
2018-04-13T06:39:03.929Z,2620
2018-04-13T06:40:13.041Z,2740
2018-04-13T06:41:22.145Z,2824
2018-04-13T06:42:30.979Z,2944
2018-04-13T06:43:39.828Z,3092
2018-04-13T06:44:49.509Z,3196
2018-04-13T06:45:58.341Z,3260
2018-04-13T06:47:07.179Z,3280
2018-04-13T06:48:16.015Z,3124
2018-04-13T06:49:25.177Z,2960
2018-04-13T06:50:34.118Z,2968
2018-04-13T06:51:43.234Z,3048
2018-04-13T06:52:52.065Z,3100
2018-04-13T06:54:00.902Z,3040
2018-04-13T06:55:10.016Z,3000
2018-04-13T06:56:18.899Z,3016
2018-04-13T06:57:28.012Z,3056
2018-04-13T06:58:36.844Z,3104
2018-04-13T06:59:45.679Z,3184
2018-04-13T07:00:54.789Z,3208
2018-04-13T07:02:03.677Z,3256
2018-04-13T07:03:12.510Z,3196
2018-04-13T07:04:21.344Z,3136
2018-04-13T07:05:30.177Z,3120
2018-04-13T07:06:39.290Z,3168
2018-04-13T07:07:48.429Z,3152
2018-04-13T07:08:57.264Z,3172
2018-04-13T07:10:06.100Z,3120
2018-04-13T07:11:14.938Z,3076
2018-04-13T07:12:23.772Z,3056
2018-04-13T07:13:32.984Z,3132
2018-04-13T07:14:42.091Z,3212
2018-04-13T07:15:50.929Z,3200
2018-04-13T07:16:59.763Z,3288
2018-04-13T07:18:08.601Z,3328
2018-04-13T07:19:17.866Z,3148
2018-04-13T07:20:26.974Z,2824
2018-04-13T07:21:35.808Z,2524
2018-04-13T07:22:44.644Z,2340
2018-04-13T07:23:53.478Z,2228
2018-04-13T07:25:02.695Z,2128
2018-04-13T07:26:11.813Z,2060
2018-04-13T07:27:20.645Z,1972
2018-04-13T07:28:29.480Z,1792
2018-04-13T07:29:38.319Z,1584
2018-04-13T07:30:47.305Z,1416
2018-04-13T07:31:56.141Z,1352
2018-04-13T07:33:04.974Z,1400
2018-04-13T07:34:14.536Z,1496
2018-04-13T07:35:22.945Z,1616
2018-04-13T07:36:31.884Z,1700
2018-04-13T07:37:40.719Z,1736
2018-04-13T07:38:49.554Z,1736
2018-04-13T07:39:58.387Z,1692
2018-04-13T07:41:07.499Z,1608
2018-04-13T07:42:16.435Z,1544
2018-04-13T07:43:25.274Z,1492
2018-04-13T07:44:34.388Z,1440
2018-04-13T07:45:43.223Z,1376
2018-04-13T07:46:52.422Z,1304
2018-04-13T07:48:01.682Z,1256
2018-04-13T07:49:10.245Z,1252
2018-04-13T07:50:19.867Z,1272
2018-04-13T07:51:28.184Z,1316
2018-04-13T07:52:37.850Z,1388
2018-04-13T07:53:47.283Z,1460
2018-04-13T07:54:56.117Z,1520
2018-04-13T07:56:04.951Z,1568
2018-04-13T07:57:13.782Z,1584
2018-04-13T07:58:22.616Z,1640
2018-04-13T07:59:31.603Z,1840
2018-04-13T08:00:40.439Z,2136
2018-04-13T08:01:49.269Z,2560
2018-04-13T08:02:58.200Z,3024
2018-04-13T08:04:07.243Z,3400
2018-04-13T08:05:15.778Z,3596
2018-04-13T08:06:24.900Z,3660
2018-04-13T08:07:33.733Z,3844
2018-04-13T08:08:42.571Z,4076
2018-04-13T08:09:51.676Z,4420
2018-04-13T08:11:00.510Z,4676
2018-04-13T08:12:09.345Z,4608
2018-04-13T08:13:18.590Z,4316
2018-04-13T08:14:27.419Z,4320
2018-04-13T08:15:36.255Z,4516
2018-04-13T08:16:45.244Z,4884
2018-04-13T08:17:54.075Z,5004
2018-04-13T08:19:03.188Z,5096
2018-04-13T08:20:12.573Z,5192
2018-04-13T08:21:21.408Z,5028
2018-04-13T08:22:30.346Z,4804
2018-04-13T08:23:39.183Z,4720
2018-04-13T08:24:48.294Z,4720
2018-04-13T08:25:57.132Z,4724
2018-04-13T08:27:06.242Z,4772
2018-04-13T08:28:15.130Z,4816
2018-04-13T08:29:23.968Z,4784
2018-04-13T08:30:33.078Z,4744
2018-04-13T08:31:42.269Z,4856
2018-04-13T08:32:51.374Z,5144
2018-04-13T08:34:00.297Z,5396
2018-04-13T08:35:09.138Z,5532
2018-04-13T08:36:18.258Z,5408
2018-04-13T08:37:27.094Z,5216
2018-04-13T08:38:35.929Z,5400
2018-04-13T08:39:44.814Z,5588
2018-04-13T08:40:53.928Z,5456
2018-04-13T08:42:02.766Z,5304
2018-04-13T08:43:11.623Z,5392
2018-04-13T08:44:20.441Z,5548
2018-04-13T08:45:29.664Z,5400
2018-04-13T08:46:38.500Z,4988
2018-04-13T08:47:47.642Z,4484
2018-04-13T08:48:56.898Z,4016
2018-04-13T08:50:06.049Z,3716
2018-04-13T08:51:14.934Z,3628
2018-04-13T08:52:23.817Z,3540
2018-04-13T08:53:32.956Z,3436
2018-04-13T08:54:41.790Z,3388
2018-04-13T08:55:50.623Z,3396
2018-04-13T08:57:00.029Z,3296
2018-04-13T08:58:09.138Z,3084
2018-04-13T08:59:18.259Z,2848
2018-04-13T09:00:27.095Z,2700
2018-04-13T09:01:36.211Z,2764
2018-04-13T09:02:45.322Z,2996
2018-04-13T09:03:54.446Z,3092
2018-04-13T09:05:03.280Z,3080
2018-04-13T09:06:12.391Z,2988
2018-04-13T09:07:21.225Z,2900
2018-04-13T09:08:30.162Z,2816
2018-04-13T09:09:39.276Z,2692
2018-04-13T09:10:48.386Z,2584
2018-04-13T09:11:57.223Z,2628
2018-04-13T09:13:06.366Z,2616
2018-04-13T09:14:15.220Z,2528
2018-04-13T09:15:24.091Z,2500
2018-04-13T09:16:33.178Z,2420
2018-04-13T09:17:42.014Z,2248
2018-04-13T09:18:50.848Z,2104
2018-04-13T09:19:59.685Z,1976
2018-04-13T09:21:08.521Z,1848
2018-04-13T09:22:17.357Z,1772
2018-04-13T09:23:26.200Z,1736
2018-04-13T09:24:35.037Z,1824
2018-04-13T09:25:44.021Z,1992
2018-04-13T09:26:53.132Z,2096
2018-04-13T09:28:01.990Z,2008
2018-04-13T09:29:10.804Z,1892
2018-04-13T09:30:19.640Z,1892
2018-04-13T09:31:28.474Z,1988
2018-04-13T09:32:37.310Z,2044
2018-04-13T09:33:46.146Z,2000
2018-04-13T09:34:54.982Z,1976
2018-04-13T09:36:03.817Z,1896
2018-04-13T09:37:13.039Z,1772
2018-04-13T09:38:22.157Z,1652
2018-04-13T09:39:30.998Z,1636
2018-04-13T09:40:39.839Z,1792
2018-04-13T09:41:48.668Z,2088
2018-04-13T09:42:57.557Z,2240
2018-04-13T09:44:06.392Z,2224
2018-04-13T09:45:15.228Z,2068
2018-04-13T09:46:24.344Z,1912
2018-04-13T09:47:33.178Z,1824
2018-04-13T09:48:42.323Z,1788
2018-04-13T09:49:51.708Z,1728
2018-04-13T09:51:00.545Z,1692
2018-04-13T09:52:09.657Z,1688
2018-04-13T09:53:18.490Z,1700
2018-04-13T09:54:27.610Z,1608
2018-04-13T09:55:36.720Z,1468
2018-04-13T09:56:45.556Z,1364
2018-04-13T09:57:54.393Z,1312
2018-04-13T09:59:03.228Z,1304
2018-04-13T10:00:12.214Z,1264
2018-04-13T10:01:21.323Z,1164
2018-04-13T10:02:30.160Z,1088
2018-04-13T10:03:39.000Z,1056
2018-04-13T10:04:47.833Z,1092
2018-04-13T10:05:56.778Z,1172
2018-04-13T10:07:05.606Z,1232
2018-04-13T10:08:14.448Z,1328
2018-04-13T10:09:23.280Z,1436
2018-04-13T10:10:32.389Z,1564
2018-04-13T10:11:41.373Z,1712
2018-04-13T10:12:50.209Z,1788
2018-04-13T10:13:59.047Z,1732
2018-04-13T10:15:08.154Z,1592
2018-04-13T10:16:16.989Z,1492
2018-04-13T10:17:26.098Z,1440
2018-04-13T10:18:34.934Z,1392
2018-04-13T10:19:43.768Z,1312
2018-04-13T10:20:52.605Z,1264
2018-04-13T10:22:01.436Z,1292
2018-04-13T10:23:10.525Z,1380
2018-04-13T10:24:19.906Z,1484
2018-04-13T10:25:28.741Z,1648
2018-04-13T10:26:37.578Z,1748
2018-04-13T10:27:46.413Z,1748
2018-04-13T10:28:55.348Z,1580
2018-04-13T10:30:04.184Z,1328
2018-04-13T10:31:13.019Z,1156
2018-04-13T10:32:21.854Z,1032
2018-04-13T10:33:30.968Z,964
2018-04-13T10:34:39.912Z,892
2018-04-13T10:35:48.747Z,884
2018-04-13T10:36:57.584Z,920
2018-04-13T10:38:06.420Z,988
2018-04-13T10:39:15.253Z,1140
2018-04-13T10:40:24.138Z,1340
2018-04-13T10:41:32.974Z,1476
2018-04-13T10:42:41.806Z,1728
2018-04-13T10:43:50.971Z,2140
2018-04-13T10:44:59.812Z,2576
2018-04-13T10:46:09.073Z,2580
2018-04-13T10:47:17.908Z,2412
2018-04-13T10:48:27.025Z,2388
2018-04-13T10:49:35.859Z,2616
2018-04-13T10:50:44.966Z,3132
2018-04-13T10:51:53.799Z,3604
2018-04-13T10:53:02.635Z,3740
2018-04-13T10:54:11.748Z,3796
2018-04-13T10:55:20.857Z,4188
2018-04-13T10:56:29.693Z,4684
2018-04-13T10:57:38.577Z,5064
2018-04-13T10:58:47.682Z,5180
2018-04-13T10:59:56.790Z,5052
2018-04-13T11:01:05.626Z,4604
2018-04-13T11:02:14.460Z,4196
2018-04-13T11:03:24.076Z,4024
2018-04-13T11:04:32.910Z,3704
2018-04-13T11:05:42.069Z,3512
2018-04-13T11:06:50.906Z,3500
2018-04-13T11:07:59.743Z,3412
2018-04-13T11:09:08.831Z,3060
2018-04-13T11:10:17.957Z,2672
2018-04-13T11:11:26.787Z,2556
2018-04-13T11:12:35.898Z,2856
2018-04-13T11:13:44.733Z,3424
2018-04-13T11:14:53.624Z,3896
2018-04-13T11:16:02.469Z,4248
2018-04-13T11:17:11.582Z,4900
2018-04-13T11:18:20.419Z,5316
2018-04-13T11:19:29.253Z,4736
2018-04-13T11:20:38.239Z,4120
2018-04-13T11:21:47.072Z,3868
2018-04-13T11:22:55.909Z,3968
2018-04-13T11:24:04.750Z,3504
2018-04-13T11:25:13.587Z,3468
2018-04-13T11:26:22.853Z,3916
2018-04-13T11:27:31.692Z,4348
2018-04-13T11:28:40.807Z,4256
2018-04-13T11:29:49.644Z,3932
2018-04-13T11:30:58.485Z,3704
2018-04-13T11:32:07.371Z,3552
2018-04-13T11:33:16.207Z,3504
2018-04-13T11:34:25.323Z,3672
2018-04-13T11:35:34.430Z,4224
2018-04-13T11:36:43.265Z,4936
2018-04-13T11:37:52.209Z,5076
2018-04-13T11:39:01.048Z,4780
2018-04-13T11:40:10.164Z,4396
2018-04-13T11:41:19.831Z,4068
2018-04-13T11:42:28.959Z,3680
2018-04-13T11:43:37.946Z,3384
2018-04-13T11:44:46.783Z,3220
2018-04-13T11:45:55.627Z,3220
2018-04-13T11:47:04.465Z,3400
2018-04-13T11:48:13.591Z,3620
2018-04-13T11:49:22.728Z,3812
2018-04-13T11:50:31.566Z,4044
2018-04-13T11:51:40.402Z,4244
2018-04-13T11:52:49.246Z,4100
2018-04-13T11:53:58.081Z,3900
2018-04-13T11:55:07.173Z,3748
2018-04-13T11:56:16.005Z,3776
2018-04-13T11:57:24.840Z,4056
2018-04-13T11:58:33.684Z,4476
2018-04-13T11:59:42.533Z,4776
2018-04-13T12:00:51.521Z,4956
2018-04-13T12:02:00.359Z,4916
2018-04-13T12:03:09.196Z,5128
2018-04-13T12:04:18.037Z,5148
2018-04-13T12:05:26.874Z,5160
2018-04-13T12:06:35.759Z,5216
2018-04-13T12:07:44.591Z,5308
2018-04-13T12:08:53.428Z,5308
2018-04-13T12:10:02.265Z,5280
2018-04-13T12:11:11.103Z,5376
2018-04-13T12:12:19.990Z,5716
2018-04-13T12:13:28.828Z,6260
2018-04-13T12:14:37.672Z,6852
2018-04-13T12:15:46.519Z,7080
2018-04-13T12:16:55.349Z,6736
2018-04-13T12:18:04.285Z,6348
2018-04-13T12:19:13.400Z,6144
2018-04-13T12:20:22.512Z,6412
2018-04-13T12:21:31.347Z,7968
2018-04-13T12:22:40.461Z,6996
2018-04-13T12:23:49.600Z,5952
2018-04-13T12:24:58.438Z,5008
2018-04-13T12:26:07.274Z,4292
2018-04-13T12:27:16.113Z,3912
2018-04-13T12:28:24.953Z,3676
2018-04-13T12:29:34.590Z,3436
2018-04-13T12:30:43.424Z,3180
2018-04-13T12:31:52.262Z,2936
2018-04-13T12:33:01.101Z,2756
2018-04-13T12:34:09.987Z,2644
2018-04-13T12:35:18.830Z,2548
2018-04-13T12:36:27.670Z,2472
2018-04-13T12:37:36.784Z,2412
2018-04-13T12:38:45.623Z,2344
2018-04-13T12:39:55.009Z,2308
2018-04-13T12:41:03.900Z,2332
2018-04-13T12:42:12.737Z,2392
2018-04-13T12:43:21.848Z,2468
2018-04-13T12:44:30.688Z,2572
2018-04-13T12:45:39.531Z,2732
2018-04-13T12:46:48.664Z,2948
2018-04-13T12:47:57.501Z,3248
2018-04-13T12:49:07.091Z,3608
2018-04-13T12:50:15.927Z,3932
2018-04-13T12:51:24.763Z,4272
2018-04-13T12:52:33.798Z,4524
2018-04-13T12:53:42.911Z,4372
2018-04-13T12:54:52.248Z,3908
2018-04-13T12:56:01.869Z,3544
2018-04-13T12:57:10.982Z,3488
2018-04-13T12:58:19.870Z,3488
2018-04-13T12:59:28.707Z,3380
2018-04-13T13:00:37.543Z,3384
2018-04-13T13:01:46.379Z,3448
2018-04-13T13:02:55.493Z,3580
2018-04-13T13:04:04.379Z,3836
2018-04-13T13:05:13.214Z,4164
2018-04-13T13:06:22.326Z,4508
2018-04-13T13:07:31.164Z,5096
2018-04-13T13:08:40.282Z,5696
2018-04-13T13:09:49.360Z,5628
2018-04-13T13:10:58.473Z,5192
2018-04-13T13:12:07.583Z,5076
2018-04-13T13:13:16.420Z,5112
2018-04-13T13:14:25.256Z,5244
2018-04-13T13:15:34.150Z,5256
2018-04-13T13:16:42.978Z,5192
2018-04-13T13:17:51.812Z,5312
2018-04-13T13:19:00.646Z,5812
2018-04-13T13:20:09.485Z,6288
2018-04-13T13:21:18.521Z,5940
2018-04-13T13:22:27.359Z,5828
2018-04-13T13:23:36.466Z,5760
2018-04-13T13:24:45.301Z,5632
2018-04-13T13:25:54.139Z,5376
2018-04-13T13:27:02.976Z,5656
2018-04-13T13:28:12.094Z,6448
2018-04-13T13:29:20.935Z,7340
2018-04-13T13:30:29.772Z,8136
2018-04-13T13:31:38.648Z,9476
2018-04-13T13:32:47.918Z,10780
2018-04-13T13:33:56.754Z,13008
2018-04-13T13:35:06.148Z,17312
2018-04-13T13:36:14.989Z,14652
2018-04-13T13:37:23.828Z,13096
2018-04-13T13:38:32.944Z,10180
2018-04-13T13:39:41.783Z,8420
2018-04-13T13:40:50.895Z,7588
2018-04-13T13:41:59.732Z,7224
2018-04-13T13:43:08.567Z,7384
2018-04-13T13:44:17.679Z,7348
2018-04-13T13:45:26.786Z,6344
2018-04-13T13:46:35.629Z,5612
2018-04-13T13:47:44.744Z,5552
2018-04-13T13:48:53.584Z,5892
2018-04-13T13:50:02.620Z,6376
2018-04-13T13:51:11.461Z,6812
2018-04-13T13:52:20.576Z,7116
2018-04-13T13:53:29.415Z,7424
2018-04-13T13:54:38.253Z,7260
2018-04-13T13:55:47.511Z,6736
2018-04-13T13:56:56.346Z,6188
2018-04-13T13:58:05.190Z,5736
2018-04-13T13:59:14.035Z,5200
2018-04-13T14:00:22.872Z,4788
2018-04-13T14:01:31.760Z,4948
2018-04-13T14:02:40.596Z,5604
2018-04-13T14:03:49.707Z,6768
2018-04-13T14:04:58.547Z,5324
2018-04-13T14:06:07.383Z,4348
2018-04-13T14:07:16.564Z,4048
2018-04-13T14:08:25.679Z,3728
2018-04-13T14:09:34.859Z,3268
2018-04-13T14:10:43.694Z,2868
2018-04-13T14:11:52.531Z,2612
2018-04-13T14:13:01.417Z,2444
2018-04-13T14:14:10.256Z,2300
2018-04-13T14:15:19.380Z,2092
2018-04-13T14:16:28.490Z,1832
2018-04-13T14:17:37.323Z,1564
2018-04-13T14:18:46.362Z,1380
2018-04-13T14:19:55.202Z,1264
2018-04-13T14:21:04.039Z,1196
2018-04-13T14:22:12.873Z,1148
2018-04-13T14:23:21.708Z,1104
2018-04-13T14:24:30.694Z,1084
2018-04-13T14:25:39.811Z,1112
2018-04-13T14:26:48.648Z,1120
2018-04-13T14:27:57.485Z,1056
2018-04-13T14:29:06.330Z,960
2018-04-13T14:30:15.242Z,884
2018-04-13T14:31:24.005Z,824
2018-04-13T14:32:32.849Z,760
2018-04-13T14:33:42.279Z,696
2018-04-13T14:34:51.115Z,644
2018-04-13T14:35:59.953Z,596
2018-04-13T14:37:09.065Z,552
2018-04-13T14:38:17.900Z,512
2018-04-13T14:39:26.744Z,492
2018-04-13T14:40:35.583Z,492
2018-04-13T14:41:44.420Z,464
2018-04-13T14:42:53.254Z,428
2018-04-13T14:44:02.393Z,416
2018-04-13T14:45:11.236Z,420
2018-04-13T14:46:20.072Z,440
2018-04-13T14:47:28.906Z,464
2018-04-13T14:48:37.742Z,488
2018-04-13T14:49:46.579Z,496
2018-04-13T14:50:55.469Z,500
2018-04-13T14:52:04.254Z,508
2018-04-13T14:53:13.089Z,508
2018-04-13T14:54:21.927Z,472
2018-04-13T14:55:30.773Z,436
2018-04-13T14:56:39.610Z,428
2018-04-13T14:57:48.729Z,428
2018-04-13T14:58:57.571Z,440
2018-04-13T15:00:06.679Z,448
2018-04-13T15:01:16.067Z,448
2018-04-13T15:02:25.183Z,444
2018-04-13T15:03:34.018Z,436
2018-04-13T15:04:42.926Z,436
2018-04-13T15:05:51.780Z,452
2018-04-13T15:07:00.732Z,468
2018-04-13T15:08:09.582Z,484
2018-04-13T15:09:18.425Z,488
2018-04-13T15:10:27.269Z,500
2018-04-13T15:11:36.121Z,544
2018-04-13T15:12:45.261Z,604
2018-04-13T15:13:54.209Z,628
2018-04-13T15:15:03.350Z,592
2018-04-13T15:16:12.467Z,600
2018-04-13T15:17:21.306Z,620
2018-04-13T15:18:30.251Z,584
2018-04-13T15:19:39.414Z,592
2018-04-13T15:20:48.258Z,620
2018-04-13T15:21:57.403Z,608
2018-04-13T15:23:06.562Z,520
2018-04-13T15:24:15.687Z,648
2018-04-13T15:25:24.797Z,696
2018-04-13T15:26:33.632Z,644
2018-04-13T15:27:42.486Z,604
2018-04-13T15:28:51.365Z,588
2018-04-13T15:30:00.684Z,544
2018-04-13T15:31:09.524Z,548
2018-04-13T15:32:18.634Z,616
2018-04-13T15:33:27.538Z,736
2018-04-13T15:34:36.374Z,708
2018-04-13T15:35:45.207Z,752
2018-04-13T15:36:54.599Z,760
2018-04-13T15:38:03.442Z,692
2018-04-13T15:39:12.276Z,556
2018-04-13T15:40:21.866Z,348
2018-04-13T15:41:30.801Z,236
2018-04-13T15:42:39.631Z,180
2018-04-13T15:43:48.467Z,160
2018-04-13T15:44:57.793Z,152
2018-04-13T15:46:06.624Z,152
2018-04-13T15:47:15.708Z,152
2018-04-13T15:48:24.837Z,152
2018-04-13T15:49:34.011Z,140
2018-04-13T15:50:42.863Z,148